Time;durP1;ratioP1;P1;durP2;ratioP2;P2;SDS_P1;SDS_P2;PMS_P1;PMS_P2;Temp;Humidity;BMP_temperature;BMP_pressure;BME280_temperature;BME280_humidity;BME280_pressure;Samples;Min_cycle;Max_cycle;Signal;HPM_P1;HPM_P2
2022/05/24 00:00:04;;;;;;;22.90;20.60;;;;;;;;;;6137177;23;20503;-94
2022/05/24 00:02:34;;;;;;;23.60;21.20;;;;;;;;;;6271467;22;20395;-96
2022/05/24 00:08:00;;;;;;;20.40;18.27;;;;;;;;;;6163622;22;20463;-96
2022/05/24 00:10:34;;;;;;;21.13;18.47;;;;;;;;;;6145071;23;20501;-96
2022/05/24 00:13:10;;;;;;;21.37;18.27;;;;;;;;;;6140754;23;20929;-96
2022/05/24 00:15:36;;;;;;;23.10;20.70;;;;;;;;;;6148996;22;20388;-96
2022/05/24 00:18:05;;;;;;;24.57;19.57;;;;;;;;;;6116761;23;20396;-95
2022/05/24 00:20:44;;;;;;;21.90;18.57;;;;;;;;;;6160881;22;20468;-95
2022/05/24 00:26:14;;;;;;;21.13;19.03;;;;;;;;;;6171324;22;20470;-96
2022/05/24 00:29:00;;;;;;;23.30;20.33;;;;;;;;;;6148954;22;20392;-96
2022/05/24 00:31:31;;;;;;;20.87;18.73;;;;;;;;;;6147481;23;20372;-95
2022/05/24 00:34:49;;;;;;;23.00;20.60;;;;;;;;;;6203618;22;20518;-95
2022/05/24 00:37:20;;;;;;;18.80;16.87;;;;;;;;;;6324431;22;20429;-96
2022/05/24 00:39:51;;;;;;;18.57;16.50;;;;;;;;;;6154289;22;20480;-96
2022/05/24 00:48:18;;;;;;;19.63;17.67;;;;;;;;;;6141669;22;20470;-96
2022/05/24 00:50:52;;;;;;;20.33;18.10;;;;;;;;;;6116563;23;20385;-96
2022/05/24 00:53:45;;;;;;;19.77;17.70;;;;;;;;;;6111158;23;20385;-96
2022/05/24 00:56:22;;;;;;;24.03;19.63;;;;;;;;;;6117204;22;20375;-96
2022/05/24 01:07:14;;;;;;;20.30;18.10;;;;;;;;;;6164776;22;20550;-96
2022/05/24 01:09:43;;;;;;;24.40;19.53;;;;;;;;;;6140659;22;20388;-96
2022/05/24 01:12:13;;;;;;;21.57;18.90;;;;;;;;;;6140535;23;20933;-94
2022/05/24 01:14:50;;;;;;;20.87;17.43;;;;;;;;;;6141964;23;20408;-95
2022/05/24 01:17:31;;;;;;;21.80;19.57;;;;;;;;;;6135382;23;20449;-95
2022/05/24 01:20:03;;;;;;;21.97;19.60;;;;;;;;;;6113445;23;20448;-96
2022/05/24 01:22:47;;;;;;;22.53;18.63;;;;;;;;;;6110383;23;20405;-96
2022/05/24 01:36:09;;;;;;;22.37;19.73;;;;;;;;;;6145620;23;20448;-96
2022/05/24 01:38:48;;;;;;;24.37;21.10;;;;;;;;;;6256933;23;21004;-95
2022/05/24 01:41:42;;;;;;;25.40;21.57;;;;;;;;;;6230315;23;20390;-95
2022/05/24 01:44:30;;;;;;;26.10;22.37;;;;;;;;;;6187743;22;20467;-96
2022/05/24 01:46:59;;;;;;;31.80;23.37;;;;;;;;;;6160409;22;20411;-95
2022/05/24 01:49:26;;;;;;;26.00;19.27;;;;;;;;;;6157920;22;20393;-95
2022/05/24 01:51:58;;;;;;;29.03;22.10;;;;;;;;;;6155552;22;20858;-93
2022/05/24 01:54:24;;;;;;;29.90;23.93;;;;;;;;;;6156987;22;20405;-95
2022/05/24 01:57:14;;;;;;;27.30;22.97;;;;;;;;;;6154896;22;20397;-95
2022/05/24 01:59:58;;;;;;;23.40;19.47;;;;;;;;;;6170759;22;20483;-96
2022/05/24 02:02:27;;;;;;;24.13;21.43;;;;;;;;;;6148164;22;20423;-96
2022/05/24 02:04:56;;;;;;;26.47;20.20;;;;;;;;;;6156852;22;20388;-94
2022/05/24 02:07:29;;;;;;;24.03;20.03;;;;;;;;;;6154572;22;20408;-94
2022/05/24 02:09:56;;;;;;;27.37;21.20;;;;;;;;;;6185985;22;20388;-95
2022/05/24 02:12:36;;;;;;;20.90;18.80;;;;;;;;;;6282229;22;20491;-95
2022/05/24 02:15:12;;;;;;;22.73;20.30;;;;;;;;;;6163192;22;20377;-95
2022/05/24 02:17:50;;;;;;;24.40;19.67;;;;;;;;;;6157594;22;20381;-96
2022/05/24 02:20:29;;;;;;;24.33;20.17;;;;;;;;;;6292648;22;20419;-95
2022/05/24 02:23:04;;;;;;;22.50;19.90;;;;;;;;;;6213502;22;20449;-94
2022/05/24 02:25:50;;;;;;;22.10;19.63;;;;;;;;;;6099502;23;20419;-96
2022/05/24 02:28:47;;;;;;;21.10;18.63;;;;;;;;;;6111260;23;20924;-94
2022/05/24 02:31:17;;;;;;;19.10;16.73;;;;;;;;;;6095691;23;20409;-95
2022/05/24 02:33:49;;;;;;;18.50;16.50;;;;;;;;;;6070304;23;20492;-94
2022/05/24 02:36:23;;;;;;;26.47;17.00;;;;;;;;;;6073833;23;20462;-94
2022/05/24 02:38:49;;;;;;;21.10;18.40;;;;;;;;;;6080063;23;20445;-94
2022/05/24 02:41:33;;;;;;;16.93;15.33;;;;;;;;;;6072456;23;20420;-95
2022/05/24 02:44:08;;;;;;;17.57;15.70;;;;;;;;;;6073613;23;20397;-95
2022/05/24 02:46:37;;;;;;;22.17;16.70;;;;;;;;;;6072694;23;20389;-94
2022/05/24 02:49:13;;;;;;;20.40;14.77;;;;;;;;;;6099787;23;20394;-94
2022/05/24 02:51:44;;;;;;;20.00;14.60;;;;;;;;;;6069493;23;20370;-93
2022/05/24 02:54:20;;;;;;;18.47;16.57;;;;;;;;;;6072324;23;20426;-95
2022/05/24 02:56:52;;;;;;;15.17;13.57;;;;;;;;;;6107747;23;20358;-96
2022/05/24 02:59:25;;;;;;;11.83;10.57;;;;;;;;;;6076668;23;20433;-95
2022/05/24 03:02:04;;;;;;;9.70;8.70;;;;;;;;;;6074185;23;20366;-95
2022/05/24 03:04:50;;;;;;;8.60;7.90;;;;;;;;;;6077298;23;20402;-95
2022/05/24 03:10:32;;;;;;;9.00;7.73;;;;;;;;;;6102669;23;20377;-96
2022/05/24 03:16:00;;;;;;;8.10;7.50;;;;;;;;;;6100708;23;20386;-96
2022/05/24 03:18:39;;;;;;;8.13;7.63;;;;;;;;;;6103787;23;20402;-95
2022/05/24 03:21:08;;;;;;;11.27;8.07;;;;;;;;;;6080496;23;20418;-96
2022/05/24 03:23:50;;;;;;;8.70;7.90;;;;;;;;;;6077520;23;20417;-96
2022/05/24 03:26:33;;;;;;;8.20;7.43;;;;;;;;;;6105443;23;20378;-93
2022/05/24 03:29:04;;;;;;;9.37;7.07;;;;;;;;;;6132965;22;20479;-95
2022/05/24 03:31:31;;;;;;;14.43;9.10;;;;;;;;;;6079573;23;20468;-95
2022/05/24 03:33:57;;;;;;;7.57;6.87;;;;;;;;;;6134055;23;20404;-96
2022/05/24 03:36:33;;;;;;;7.10;6.50;;;;;;;;;;6129697;23;20436;-94
2022/05/24 03:39:16;;;;;;;7.63;7.00;;;;;;;;;;6134902;22;20441;-95
2022/05/24 03:50:27;;;;;;;;;;;;;;;;;;;;;
2022/05/24 04:17:05;;;;;;;14.40;6.67;;;;;;;;;;6128796;22;20441;-95
2022/05/24 04:20:22;;;;;;;8.30;7.17;;;;;;;;;;6140402;23;20508;-94
2022/05/24 04:26:03;;;;;;;7.70;6.90;;;;;;;;;;6284322;22;20451;-93
2022/05/24 04:49:10;;;;;;;10.47;7.17;;;;;;;;;;6138311;22;20436;-93
2022/05/24 05:00:42;;;;;;;7.90;7.23;;;;;;;;;;6104973;23;20433;-96
2022/05/24 05:03:28;;;;;;;6.57;5.97;;;;;;;;;;6101642;23;20429;-95
2022/05/24 05:06:34;;;;;;;8.77;5.10;;;;;;;;;;6105756;23;20649;-94
2022/05/24 05:09:43;;;;;;;6.40;6.00;;;;;;;;;;6107233;22;20950;-95
2022/05/24 05:12:50;;;;;;;5.60;5.20;;;;;;;;;;6105269;23;20444;-95
2022/05/24 05:15:56;;;;;;;6.97;5.43;;;;;;;;;;6111379;23;20370;-89
2022/05/24 05:19:02;;;;;;;6.10;5.27;;;;;;;;;;6110123;23;20366;-92
2022/05/24 05:25:29;;;;;;;5.53;4.63;;;;;;;;;;6144608;23;20959;-91
2022/05/24 05:28:37;;;;;;;4.43;4.13;;;;;;;;;;6135519;22;20401;-92
2022/05/24 05:31:42;;;;;;;5.93;5.10;;;;;;;;;;6134980;23;20398;-92
2022/05/24 05:37:33;;;;;;;5.60;5.20;;;;;;;;;;6135100;22;20465;-89
2022/05/24 05:40:34;;;;;;;5.90;4.93;;;;;;;;;;6110939;22;20814;-93
2022/05/24 05:46:26;;;;;;;5.40;5.00;;;;;;;;;;6115221;22;20617;-88
2022/05/24 05:49:32;;;;;;;12.73;4.33;;;;;;;;;;6135719;22;20407;-90
2022/05/24 05:52:50;;;;;;;;;;;;;;;;;;;;;
2022/05/24 05:55:47;;;;;;;4.73;4.43;;;;;;;;;;6136664;23;20385;-94
2022/05/24 05:58:55;;;;;;;8.17;5.43;;;;;;;;;;6142290;23;20393;-92
2022/05/24 06:02:04;;;;;;;7.60;5.30;;;;;;;;;;6135952;22;20449;-94
2022/05/24 06:05:10;;;;;;;7.40;4.20;;;;;;;;;;6138117;23;20393;-96
2022/05/24 06:07:57;;;;;;;5.00;4.23;;;;;;;;;;6141290;23;20413;-94
2022/05/24 06:10:24;;;;;;;4.10;3.77;;;;;;;;;;6140527;23;20417;-91
2022/05/24 06:12:51;;;;;;;7.60;4.00;;;;;;;;;;6143039;23;20508;-91
2022/05/24 06:15:19;;;;;;;4.00;3.00;;;;;;;;;;6145294;22;20382;-95
2022/05/24 06:17:53;;;;;;;2.93;2.87;;;;;;;;;;6126207;23;20468;-91
2022/05/24 06:22:57;;;;;;;6.27;3.67;;;;;;;;;;6096409;22;20449;-93
2022/05/24 06:25:32;;;;;;;6.63;3.53;;;;;;;;;;6084486;23;20409;-94
2022/05/24 06:27:58;;;;;;;3.83;3.53;;;;;;;;;;6084341;23;20398;-90
2022/05/24 06:30:36;;;;;;;3.60;3.23;;;;;;;;;;6126173;22;20576;-94
2022/05/24 06:33:02;;;;;;;6.73;3.93;;;;;;;;;;6116337;23;20450;-92
2022/05/24 06:35:28;;;;;;;5.20;3.30;;;;;;;;;;6080204;22;21475;-87
2022/05/24 06:40:35;;;;;;;6.87;4.77;;;;;;;;;;6323527;22;20474;-94
2022/05/24 06:43:02;;;;;;;3.77;3.57;;;;;;;;;;6299370;22;20403;-93
2022/05/24 06:45:29;;;;;;;3.70;2.83;;;;;;;;;;6293588;22;20719;-94
2022/05/24 06:48:02;;;;;;;3.47;3.20;;;;;;;;;;6321319;22;20410;-94
2022/05/24 06:53:21;;;;;;;5.20;2.90;;;;;;;;;;6318708;22;20368;-92
2022/05/24 06:55:52;;;;;;;5.90;3.10;;;;;;;;;;6287089;22;20874;-94
2022/05/24 06:58:21;;;;;;;4.20;3.00;;;;;;;;;;6295759;22;20388;-95
2022/05/24 07:03:55;;;;;;;5.77;3.37;;;;;;;;;;6272596;22;20386;-95
2022/05/24 07:06:26;;;;;;;6.10;3.27;;;;;;;;;;6324242;22;20404;-95
2022/05/24 07:08:52;;;;;;;5.57;3.10;;;;;;;;;;6297445;22;20364;-93
2022/05/24 07:11:22;;;;;;;3.20;2.90;;;;;;;;;;6301247;22;20408;-93
2022/05/24 07:14:01;;;;;;;4.83;3.90;;;;;;;;;;6329495;22;20431;-90
2022/05/24 07:16:41;;;;;;;3.47;3.17;;;;;;;;;;6326067;22;20879;-92
2022/05/24 07:19:25;;;;;;;7.47;5.70;;;;;;;;;;6293756;22;20447;-87
2022/05/24 07:21:51;;;;;;;4.00;3.80;;;;;;;;;;6132352;22;20448;-88
2022/05/24 07:24:18;;;;;;;3.50;3.20;;;;;;;;;;6161909;23;20456;-89
2022/05/24 07:26:47;;;;;;;2.63;2.43;;;;;;;;;;6143013;23;20529;-90
2022/05/24 07:29:13;;;;;;;3.10;2.40;;;;;;;;;;6245234;22;20413;-91
2022/05/24 07:31:39;;;;;;;3.43;3.23;;;;;;;;;;6117059;22;20401;-94
2022/05/24 07:34:08;;;;;;;4.00;2.57;;;;;;;;;;6125577;22;20456;-91
2022/05/24 07:36:37;;;;;;;2.37;2.17;;;;;;;;;;6106161;22;20465;-94
2022/05/24 07:39:03;;;;;;;2.40;2.30;;;;;;;;;;6114151;23;20478;-94
2022/05/24 07:46:59;;;;;;;3.13;2.10;;;;;;;;;;6107198;23;20376;-93
2022/05/24 07:49:25;;;;;;;1.93;1.93;;;;;;;;;;6078038;23;20386;-92
2022/05/24 07:51:51;;;;;;;1.80;1.70;;;;;;;;;;6104498;23;20374;-92
2022/05/24 07:54:31;;;;;;;2.07;1.50;;;;;;;;;;6103939;23;20390;-91
2022/05/24 07:57:01;;;;;;;2.20;1.90;;;;;;;;;;6095845;23;20466;-88
2022/05/24 07:59:27;;;;;;;4.50;3.00;;;;;;;;;;6065724;23;20461;-89
2022/05/24 08:01:58;;;;;;;2.07;1.97;;;;;;;;;;6093006;23;20433;-91
2022/05/24 08:04:24;;;;;;;2.03;2.00;;;;;;;;;;6103359;23;20359;-90
2022/05/24 08:06:51;;;;;;;3.70;2.20;;;;;;;;;;6099762;23;20845;-91
2022/05/24 08:09:17;;;;;;;2.20;2.10;;;;;;;;;;6098296;23;20398;-91
2022/05/24 08:11:45;;;;;;;2.70;2.50;;;;;;;;;;6066313;23;20391;-89
2022/05/24 08:14:11;;;;;;;2.90;2.57;;;;;;;;;;6079759;23;20481;-93
2022/05/24 08:16:37;;;;;;;2.13;2.13;;;;;;;;;;6107957;23;20385;-92
2022/05/24 08:19:04;;;;;;;2.93;2.73;;;;;;;;;;6084008;23;20410;-92
2022/05/24 08:21:32;;;;;;;2.90;2.73;;;;;;;;;;6055134;23;20429;-92
2022/05/24 08:24:01;;;;;;;1.77;1.67;;;;;;;;;;6055694;23;20414;-91
2022/05/24 08:26:37;;;;;;;2.07;2.07;;;;;;;;;;6049439;23;20399;-95
2022/05/24 08:29:08;;;;;;;4.43;2.63;;;;;;;;;;6057251;23;20394;-94
2022/05/24 08:31:34;;;;;;;2.80;2.70;;;;;;;;;;6058543;23;20386;-93
2022/05/24 08:34:01;;;;;;;3.23;2.93;;;;;;;;;;6061389;23;20391;-95
2022/05/24 08:36:27;;;;;;;2.87;2.67;;;;;;;;;;6058988;23;20410;-92
2022/05/24 08:38:59;;;;;;;2.43;2.23;;;;;;;;;;6076509;23;20387;-90
2022/05/24 08:41:40;;;;;;;3.30;3.10;;;;;;;;;;6076966;23;20933;-92
2022/05/24 08:49:46;;;;;;;2.80;2.70;;;;;;;;;;6087291;22;20461;-93
2022/05/24 08:52:12;;;;;;;3.13;2.70;;;;;;;;;;6086754;22;20379;-95
2022/05/24 08:54:43;;;;;;;2.87;2.67;;;;;;;;;;6086950;23;20423;-93
2022/05/24 08:59:47;;;;;;;3.17;2.83;;;;;;;;;;6292399;22;20472;-91
2022/05/24 09:02:13;;;;;;;16.93;3.47;;;;;;;;;;6268817;22;20436;-93
2022/05/24 09:04:39;;;;;;;2.60;2.50;;;;;;;;;;6267589;22;20377;-92
2022/05/24 09:07:05;;;;;;;4.60;3.60;;;;;;;;;;6264107;22;20392;-94
2022/05/24 09:09:51;;;;;;;3.30;3.20;;;;;;;;;;6290389;22;20391;-95
2022/05/24 09:15:51;;;;;;;2.90;2.70;;;;;;;;;;6293333;22;20430;-93
2022/05/24 09:19:15;;;;;;;2.33;2.20;;;;;;;;;;6295530;22;20415;-93
2022/05/24 09:22:22;;;;;;;2.33;2.30;;;;;;;;;;6292180;22;20400;-91
2022/05/24 09:25:27;;;;;;;2.80;2.60;;;;;;;;;;6290680;22;20385;-92
2022/05/24 09:28:36;;;;;;;6.70;5.93;;;;;;;;;;6294672;22;20693;-93
2022/05/24 09:31:19;;;;;;;1.50;1.50;;;;;;;;;;6266378;23;20424;-88
2022/05/24 09:34:46;;;;;;;2.63;2.27;;;;;;;;;;6262807;22;20393;-90
2022/05/24 09:38:16;;;;;;;3.60;2.23;;;;;;;;;;6263646;23;20394;-92
2022/05/24 09:41:09;;;;;;;1.67;1.67;;;;;;;;;;6269176;22;20472;-91
2022/05/24 09:46:47;;;;;;;1.43;1.00;;;;;;;;;;6201372;22;20506;-91
2022/05/24 09:49:54;;;;;;;1.60;1.50;;;;;;;;;;6269643;22;20546;-93
2022/05/24 09:52:59;;;;;;;1.80;1.70;;;;;;;;;;6270918;22;20389;-92
2022/05/24 09:56:11;;;;;;;1.60;1.47;;;;;;;;;;6270159;22;20416;-92
2022/05/24 09:59:23;;;;;;;1.20;1.20;;;;;;;;;;6269793;22;20386;-93
2022/05/24 10:02:34;;;;;;;2.70;2.60;;;;;;;;;;6270478;22;20417;-94
2022/05/24 10:05:42;;;;;;;4.10;1.63;;;;;;;;;;6265640;22;20401;-90
2022/05/24 10:08:45;;;;;;;1.43;1.43;;;;;;;;;;6264469;22;20382;-91
2022/05/24 10:14:47;;;;;;;1.60;1.50;;;;;;;;;;6236242;22;20437;-89
2022/05/24 10:17:33;;;;;;;2.07;1.97;;;;;;;;;;6227089;22;20449;-94
2022/05/24 10:26:24;;;;;;;1.10;1.10;;;;;;;;;;6078460;23;20474;31
2022/05/24 10:38:41;;;;;;;1.60;1.60;;;;;;;;;;6261585;23;20396;-93
2022/05/24 10:41:39;;;;;;;1.67;1.67;;;;;;;;;;6249876;23;20411;-88
2022/05/24 10:44:44;;;;;;;1.83;1.13;;;;;;;;;;6246447;23;20385;-93
2022/05/24 10:48:03;;;;;;;1.83;1.60;;;;;;;;;;6256131;23;20504;-91
2022/05/24 10:50:39;;;;;;;1.23;1.23;;;;;;;;;;6186127;23;20400;-94
2022/05/24 10:53:15;;;;;;;1.30;1.20;;;;;;;;;;6234832;23;20377;-96
2022/05/24 10:56:00;;;;;;;1.23;1.20;;;;;;;;;;6235470;23;20365;-95
2022/05/24 10:58:29;;;;;;;1.87;1.77;;;;;;;;;;6237807;23;20417;-95
2022/05/24 11:01:05;;;;;;;1.30;1.20;;;;;;;;;;6239244;23;20428;-95
2022/05/24 11:03:33;;;;;;;1.50;1.40;;;;;;;;;;6258893;23;20393;-90
2022/05/24 11:06:17;;;;;;;1.43;1.43;;;;;;;;;;6259244;23;20366;-90
2022/05/24 11:12:22;;;;;;;1.40;1.23;;;;;;;;;;6257268;23;20354;-91
2022/05/24 11:15:06;;;;;;;1.90;1.27;;;;;;;;;;6245267;23;20692;-91
2022/05/24 11:17:36;;;;;;;1.60;1.60;;;;;;;;;;6255500;23;20372;-90
2022/05/24 11:20:04;;;;;;;2.47;2.03;;;;;;;;;;6225647;23;20499;-91
2022/05/24 11:22:43;;;;;;;1.90;1.80;;;;;;;;;;6256639;23;20382;-87
2022/05/24 11:25:13;;;;;;;3.30;1.73;;;;;;;;;;6248507;23;20390;-93
2022/05/24 11:27:59;;;;;;;2.10;2.10;;;;;;;;;;6228193;23;20396;-92
2022/05/24 11:30:28;;;;;;;2.23;2.13;;;;;;;;;;6218599;23;20402;-91
2022/05/24 11:33:07;;;;;;;2.00;1.80;;;;;;;;;;6197726;23;20387;-91
2022/05/24 11:35:50;;;;;;;2.47;2.37;;;;;;;;;;6227343;23;20539;-89
2022/05/24 11:38:24;;;;;;;2.40;2.10;;;;;;;;;;6227515;23;20393;-91
2022/05/24 11:41:12;;;;;;;1.90;1.60;;;;;;;;;;6234096;23;20498;-91
2022/05/24 11:43:46;;;;;;;1.60;1.50;;;;;;;;;;6227435;23;20452;-91
2022/05/24 11:47:29;;;;;;;4.20;1.80;;;;;;;;;;6225680;23;20366;-93
2022/05/24 11:49:36;;;;;;;2.17;1.83;;;;;;;;;;6102518;23;20394;-93
2022/05/24 11:52:41;;;;;;;1.30;1.30;;;22.20;99.90;;;;;;6081623;23;20402;-91
2022/05/24 11:55:40;;;;;;;1.40;1.40;;;23.60;90.40;;;;;;6103610;23;20378;-93
2022/05/24 11:58:20;;;;;;;1.00;1.00;;;23.50;86.20;;;;;;6173209;23;20398;-90
2022/05/24 12:01:08;;;;;;;1.30;1.20;;;25.20;80.90;;;;;;6223414;23;20437;-91
2022/05/24 12:10:10;;;;;;;1.63;1.53;;;24.10;70.80;;;;;;6217584;23;20390;-91
2022/05/24 12:13:06;;;;;;;1.60;1.13;;;23.80;72.90;;;;;;6224125;23;20461;-90
2022/05/24 12:15:35;;;;;;;1.07;1.00;;;23.60;89.20;;;;;;6194753;23;20625;-91
2022/05/24 12:18:01;;;;;;;1.50;1.17;;;;;;;;;;6192752;23;20410;-91
2022/05/24 12:20:50;;;;;;;1.20;1.20;;;22.90;63.50;;;;;;6216126;23;20450;-93
2022/05/24 12:23:16;;;;;;;1.40;1.40;;;;;;;;;;6216269;23;20378;-89
2022/05/24 12:26:03;;;;;;;1.50;1.40;;;21.20;92.80;;;;;;6194801;23;20485;-90
2022/05/24 12:28:33;;;;;;;1.20;1.20;;;20.70;93.20;;;;;;6222938;23;20374;-89
2022/05/24 12:31:00;;;;;;;1.13;1.13;;;20.30;77.90;;;;;;6215581;23;20362;-91
2022/05/24 12:33:33;;;;;;;1.30;1.30;;;20.40;78.30;;;;;;6215830;23;20540;-89
2022/05/24 12:36:01;;;;;;;1.40;1.23;;;;;;;;;;6212719;23;20422;-89
2022/05/24 12:39:06;;;;;;;1.20;1.10;;;20.10;79.60;;;;;;6188687;23;20667;-90
2022/05/24 12:42:41;;;;;;;1.10;1.10;;;19.60;81.80;;;;;;6213759;23;20402;-89
2022/05/24 12:46:00;;;;;;;1.70;1.70;;;19.80;83.00;;;;;;6205059;23;20450;-89
2022/05/24 12:49:26;;;;;;;1.60;1.53;;;19.50;82.10;;;;;;6208027;23;20397;-90
2022/05/24 12:53:00;;;;;;;1.40;1.30;;;19.30;87.70;;;;;;6214813;23;20391;-89
2022/05/24 12:56:28;;;;;;;1.77;1.70;;;19.50;89.20;;;;;;6225916;23;20397;-90
2022/05/24 12:59:55;;;;;;;1.70;1.33;;;19.30;88.50;;;;;;6228657;23;20402;-88
2022/05/24 13:03:26;;;;;;;1.57;1.47;;;19.30;83.70;;;;;;6219783;23;20415;-90
2022/05/24 13:06:51;;;;;;;2.87;1.40;;;20.70;78.30;;;;;;6222175;23;20394;-90
2022/05/24 13:10:17;;;;;;;0.67;0.67;;;20.30;77.80;;;;;;6215751;23;20836;-84
2022/05/24 13:13:43;;;;;;;0.83;0.83;;;19.80;76.60;;;;;;6215003;23;20933;-90
2022/05/24 13:17:10;;;;;;;1.50;1.50;;;19.80;79.40;;;;;;6217121;23;20402;-91
2022/05/24 13:20:26;;;;;;;0.80;0.80;;;19.30;75.60;;;;;;6221985;23;20745;-91
2022/05/24 13:23:44;;;;;;;1.30;1.10;;;19.70;95.50;;;;;;6226107;22;20539;-89
2022/05/24 13:27:31;;;;;;;;;;;;;;;;;;;;;
2022/05/24 13:34:12;;;;;;;1.00;0.90;;;24.10;67.40;;;;;;6249292;23;20384;-92
2022/05/24 13:37:43;;;;;;;1.37;1.30;;;24.50;64.30;;;;;;6258784;23;20433;-93
2022/05/24 13:41:18;;;;;;;1.57;1.47;;;24.70;70.10;;;;;;6261481;23;20447;-92
2022/05/24 13:45:06;;;;;;;1.23;1.10;;;24.20;62.10;;;;;;6244204;22;20385;-91
2022/05/24 13:48:44;;;;;;;2.53;1.20;;;23.20;65.30;;;;;;6232861;22;20441;-89
2022/05/24 13:52:07;;;;;;;2.00;1.10;;;22.20;66.70;;;;;;6253335;23;20430;-89
2022/05/24 13:55:12;;;;;;;1.00;1.00;;;;;;;;;;6246227;23;20393;-89
2022/05/24 13:58:30;;;;;;;1.23;0.93;;;;;;;;;;6253409;23;20385;-90
2022/05/24 14:01:08;;;;;;;1.70;1.30;;;;;;;;;;6255401;23;20518;-91
2022/05/24 14:04:36;;;;;;;5.00;1.40;;;17.20;99.90;;;;;;6263380;23;20386;-91
2022/05/24 14:11:32;;;;;;;3.30;1.60;;;17.90;99.90;;;;;;6257618;23;20369;-95
2022/05/24 14:14:59;;;;;;;1.00;1.00;;;17.80;99.90;;;;;;6247908;23;20410;-87
2022/05/24 14:18:24;;;;;;;1.00;1.00;;;18.80;99.90;;;;;;6248130;23;20499;-89
2022/05/24 14:21:54;;;;;;;1.20;1.20;;;21.40;99.90;;;;;;6249763;23;20444;-91
2022/05/24 14:25:15;;;;;;;1.30;1.27;;;21.50;99.90;;;;;;6251226;23;20386;-87
2022/05/24 14:28:52;;;;;;;1.00;1.00;;;22.80;93.40;;;;;;6266049;22;20393;-91
2022/05/24 14:32:15;;;;;;;2.23;1.40;;;21.90;99.90;;;;;;6254216;23;20883;-92
2022/05/24 14:35:40;;;;;;;1.37;1.20;;;21.70;93.10;;;;;;6259227;23;20420;-90
2022/05/24 14:39:16;;;;;;;1.10;1.10;;;21.50;89.10;;;;;;6256713;23;20476;-89
2022/05/24 14:42:42;;;;;;;1.30;1.30;;;21.80;90.40;;;;;;6257288;23;20517;-90
2022/05/24 14:46:05;;;;;;;1.57;1.43;;;21.70;94.10;;;;;;6257367;23;20448;-91
2022/05/24 14:49:30;;;;;;;1.17;1.07;;;21.30;90.00;;;;;;6250058;23;20398;-90
2022/05/24 14:52:56;;;;;;;1.33;1.33;;;20.90;90.20;;;;;;6253185;23;20421;-92
2022/05/24 14:56:21;;;;;;;1.10;1.10;;;20.80;90.20;;;;;;6256319;23;20567;-91
2022/05/24 14:59:49;;;;;;;0.80;0.80;;;21.10;90.60;;;;;;6262587;23;20386;-92
2022/05/24 15:03:12;;;;;;;0.73;0.73;;;19.80;80.50;;;;;;6256876;23;20402;-89
2022/05/24 15:06:40;;;;;;;1.60;1.40;;;21.00;88.00;;;;;;6253672;23;20389;-91
2022/05/24 15:16:55;;;;;;;1.90;1.80;;;19.70;90.70;;;;;;6251975;23;20429;-90
2022/05/24 15:20:18;;;;;;;1.50;1.47;;;19.20;93.00;;;;;;6247771;23;20456;-92
2022/05/24 15:23:44;;;;;;;1.13;1.13;;;18.80;94.10;;;;;;6244183;23;20806;-91
2022/05/24 15:27:23;;;;;;;;;;;;;;;;;;;;;
2022/05/24 15:30:38;;;;;;;1.37;1.37;;;17.60;97.80;;;;;;6248996;23;20407;-89
2022/05/24 15:34:07;;;;;;;0.80;0.80;;;17.20;99.90;;;;;;6260604;23;20758;-89
2022/05/24 15:37:32;;;;;;;1.40;1.40;;;16.70;99.90;;;;;;6244905;23;20506;-88
2022/05/24 15:40:57;;;;;;;1.50;1.50;;;16.80;99.90;;;;;;6241352;23;20437;-90
2022/05/24 15:44:23;;;;;;;1.00;1.00;;;16.80;99.90;;;;;;6240830;23;20706;-89
2022/05/24 15:47:48;;;;;;;1.10;1.10;;;16.60;99.90;;;;;;6248435;23;20428;-88
2022/05/24 15:50:37;;;;;;;1.57;1.17;;;16.90;99.90;;;;;;6254247;23;20419;-89
2022/05/24 15:53:06;;;;;;;1.17;1.13;;;17.60;99.90;;;;;;6257377;23;20378;-89
2022/05/24 15:55:35;;;;;;;1.67;1.57;;;;;;;;;;6223619;23;20389;-91
2022/05/24 15:58:04;;;;;;;3.70;1.50;;;17.80;99.90;;;;;;6222890;23;20695;-93
2022/05/24 16:00:35;;;;;;;1.17;1.17;;;18.30;99.90;;;;;;6225060;23;20437;-90
2022/05/24 16:03:04;;;;;;;1.00;1.00;;;;;;;;;;6225554;23;20381;-91
2022/05/24 16:11:17;;;;;;;;;;;;;;;;;;;;;
2022/05/24 16:13:59;;;;;;;0.90;0.90;;;18.40;99.90;;;;;;6236163;23;20398;-92
2022/05/24 16:16:30;;;;;;;1.07;1.07;;;18.20;99.90;;;;;;6232519;23;20377;-93
2022/05/24 16:18:56;;;;;;;1.10;1.10;;;;;;;;;;6232232;23;20370;-92
2022/05/24 16:21:25;;;;;;;0.90;0.90;;;;;;;;;;6250798;23;20429;-89
2022/05/24 16:24:32;;;;;;;1.40;1.30;;;18.50;99.90;;;;;;6255644;23;20378;-92
2022/05/24 16:27:56;;;;;;;1.00;1.00;;;18.60;99.90;;;;;;6256966;23;20393;-93
2022/05/24 16:31:21;;;;;;;1.40;1.40;;;18.70;99.90;;;;;;6251732;23;20410;-92
2022/05/24 16:34:46;;;;;;;1.30;1.30;;;18.70;99.90;;;;;;6246472;23;20386;-93
2022/05/24 16:37:32;;;;;;;1.07;1.07;;;18.80;99.90;;;;;;6245121;23;20390;-93
2022/05/24 16:39:58;;;;;;;1.30;1.30;;;;;;;;;;6247797;23;20497;-90
2022/05/24 16:43:07;;;;;;;1.50;1.50;;;18.90;99.90;;;;;;6218752;23;20881;-94
2022/05/24 16:45:50;;;;;;;1.87;0.87;;;;;;;;;;6246151;23;20537;-89
2022/05/24 16:48:57;;;;;;;1.17;1.17;;;18.70;99.90;;;;;;6231348;23;20520;-92
2022/05/24 16:52:25;;;;;;;1.07;1.03;;;18.50;99.90;;;;;;6255639;23;20401;-90
2022/05/24 16:59:15;;;;;;;1.20;1.10;;;18.50;99.90;;;;;;6257079;23;20397;-93
2022/05/24 17:02:41;;;;;;;1.27;1.17;;;18.40;99.90;;;;;;6250997;23;20398;-93
2022/05/24 17:06:08;;;;;;;1.20;1.20;;;18.10;99.90;;;;;;6251678;23;21128;-91
2022/05/24 17:09:35;;;;;;;1.43;1.40;;;18.30;99.90;;;;;;6256076;23;21047;-93
2022/05/24 17:13:00;;;;;;;1.10;1.10;;;18.20;99.90;;;;;;6257468;23;20373;-90
2022/05/24 17:16:34;;;;;;;1.80;1.80;;;18.20;99.90;;;;;;6262685;23;20392;-93
2022/05/24 17:20:02;;;;;;;1.10;1.10;;;18.20;99.90;;;;;;6257188;23;20396;-86
2022/05/24 17:23:25;;;;;;;1.47;1.47;;;17.90;99.90;;;;;;6256992;23;20385;-93
2022/05/24 17:26:51;;;;;;;1.60;1.60;;;17.50;99.90;;;;;;6256617;23;20381;-91
2022/05/24 17:30:16;;;;;;;1.50;1.40;;;16.90;99.90;;;;;;6253338;23;20401;-91
2022/05/24 17:33:44;;;;;;;1.40;1.40;;;17.30;99.90;;;;;;6257313;23;20396;-94
2022/05/24 17:37:25;;;;;;;1.50;1.50;;;17.40;99.90;;;;;;6255929;23;20392;-94
2022/05/24 17:40:51;;;;;;;1.03;1.03;;;17.80;99.90;;;;;;6265581;22;20452;-91
2022/05/24 17:44:17;;;;;;;1.73;1.73;;;17.10;99.90;;;;;;6287793;22;20465;-91
2022/05/24 17:47:04;;;;;;;1.50;1.10;;;16.50;99.90;;;;;;6294253;22;20440;-90
2022/05/24 17:50:13;;;;;;;1.10;1.10;;;16.60;99.90;;;;;;6263558;22;20450;-92
2022/05/24 17:53:35;;;;;;;1.40;1.00;;;16.40;99.90;;;;;;6282109;22;20448;-93
2022/05/24 17:57:02;;;;;;;0.93;0.93;;;16.20;99.90;;;;;;6291435;22;20372;-90
2022/05/24 17:59:48;;;;;;;0.50;0.50;;;16.20;99.90;;;;;;6294387;22;20489;-91
2022/05/24 18:02:15;;;;;;;0.77;0.77;;;;;;;;;;6265355;22;20384;-93
2022/05/24 18:04:49;;;;;;;0.47;0.47;;;16.10;99.90;;;;;;6291868;22;20368;-93
2022/05/24 18:09:54;;;;;;;1.07;0.50;;;16.10;99.90;;;;;;6113232;23;20460;-89
2022/05/24 18:12:20;;;;;;;1.53;1.43;;;16.20;99.90;;;;;;6253457;23;20405;-92
2022/05/24 18:14:46;;;;;;;0.50;0.50;;;;;;;;;;6226680;23;20425;-93
2022/05/24 18:17:12;;;;;;;0.60;0.60;;;;;;;;;;6244783;23;20381;-89
2022/05/24 18:20:17;;;;;;;4.17;0.60;;;16.20;99.90;;;;;;6219698;23;20430;-91
2022/05/24 18:23:51;;;;;;;0.50;0.50;;;16.00;99.90;;;;;;6243802;23;20473;-91
2022/05/24 18:33:54;;;;;;;0.70;0.70;;;16.10;99.90;;;;;;6215175;23;20389;-91
2022/05/24 18:36:53;;;;;;;0.97;0.97;;;15.90;99.90;;;;;;6214888;23;20544;-92
2022/05/24 18:39:22;;;;;;;0.97;0.97;;;;;;;;;;6215189;23;20394;-91
2022/05/24 18:41:48;;;;;;;0.90;0.90;;;;;;;;;;6210357;23;20390;-90
2022/05/24 18:44:16;;;;;;;1.20;1.20;;;16.00;99.90;;;;;;6214150;23;20351;-89
2022/05/24 18:46:42;;;;;;;0.80;0.80;;;15.90;99.90;;;;;;6189559;23;20402;-92
2022/05/24 18:49:08;;;;;;;0.97;0.87;;;;;;;;;;6182265;23;20390;-89
2022/05/24 18:51:35;;;;;;;1.23;1.23;;;;;;;;;;6185549;23;20163;-90
2022/05/24 18:54:03;;;;;;;1.40;1.40;;;16.20;99.90;;;;;;6205097;23;20663;-91
2022/05/24 18:56:29;;;;;;;1.50;0.87;;;15.80;99.90;;;;;;6185017;23;20394;-92
2022/05/24 18:59:39;;;;;;;0.93;0.80;;;15.20;99.90;;;;;;6211662;23;20858;-90
2022/05/24 19:03:04;;;;;;;0.80;0.80;;;16.10;99.90;;;;;;6204679;23;20409;-91
2022/05/24 19:06:30;;;;;;;1.13;1.10;;;16.20;99.90;;;;;;6212857;23;20390;-92
2022/05/24 19:10:03;;;;;;;1.50;1.50;;;16.10;99.90;;;;;;6213966;23;20417;-91
2022/05/24 19:13:28;;;;;;;1.00;0.90;;;16.10;99.90;;;;;;6219777;23;20496;-93
2022/05/24 19:16:54;;;;;;;1.03;1.03;;;15.90;99.90;;;;;;6222828;23;20394;-92
2022/05/24 19:20:19;;;;;;;1.00;1.00;;;16.00;99.90;;;;;;6226504;23;20461;-92
2022/05/24 19:23:44;;;;;;;0.80;0.80;;;16.00;99.90;;;;;;6230679;23;20425;-91
2022/05/24 19:27:10;;;;;;;1.40;1.13;;;15.80;99.90;;;;;;6227915;23;20387;-92
2022/05/24 19:30:37;;;;;;;0.97;0.97;;;15.80;99.90;;;;;;6226051;23;20422;-92
2022/05/24 19:34:01;;;;;;;1.37;1.23;;;15.70;99.90;;;;;;6226210;23;20394;-91
2022/05/24 19:37:26;;;;;;;0.70;0.70;;;15.60;99.90;;;;;;6221406;23;20425;-91
2022/05/24 19:43:39;;;;;;;1.13;1.13;;;;;;;;;;6224546;23;20461;-89